»·PEaware :: UAL1074 KSFO-KPHX

UAL1074 :: KSFO-KPHX

FLIGHT INFORMATION

Flight Status: Arrived
Operator:
United Airlines
More flights by this operator :: More flights under this callsign
Pilot: John C. (18682)
Aircraft: AIRBUS A320
(A320)
More flights by this aircraft type
Origin: KSFO San Francisco Intl
United States
Destination: KPHX Phoenix Sky Harbor Intl
United States
More flights between these airports :: More routes between these airports
Route: +SSTIK3 LOSHN BOILE BLH HYDRR1
File this flight plan on PilotEdge
Remarks:
Altitude:
(Current/Filed)
37,000ft
Speed:
(Current/Filed)
458kts
Departed: 12-May-18 11:08 AM
Arrived: 12-May-18 12:40 PM
Distance/Time
Traveled:
564nm/1:32
Distance/Time
To Go:
Arrived

Flight Plot

Page will automatically refresh every two minutes.


Map Options




Map Legend


Flown Route
Filed Route
Departure Airport
Arrival Airport
Navaid (VOR, NDB)
Fix

Horizontal Profiles

Position Reports

Time Latitude Longitude Heading Altitude Ground
Speed
12-May-18 10:40 37.618046 -122.384084 281 32ft 0kts
12-May-18 10:41 37.618046 -122.384084 281 32ft 0kts
12-May-18 10:42 37.618046 -122.384084 281 32ft 0kts
12-May-18 10:43 37.618046 -122.384084 281 32ft 0kts
12-May-18 10:44 37.618046 -122.384084 281 32ft 0kts
12-May-18 10:45 37.618046 -122.384084 281 32ft 0kts
12-May-18 10:46 37.618046 -122.384084 281 32ft 0kts
12-May-18 10:47 37.618046 -122.384084 281 32ft 0kts
12-May-18 10:48 37.618046 -122.384084 281 32ft 0kts
12-May-18 10:49 37.618046 -122.384084 281 32ft 0kts
12-May-18 10:50 37.618046 -122.384084 281 32ft 0kts
12-May-18 10:51 37.618046 -122.384084 281 32ft 0kts
12-May-18 10:52 37.618046 -122.384084 281 32ft 0kts
12-May-18 10:53 37.618046 -122.384084 281 32ft 0kts
12-May-18 10:54 37.618046 -122.384084 281 32ft 0kts
12-May-18 10:55 37.618046 -122.384084 281 32ft 0kts
12-May-18 10:56 37.618046 -122.384084 281 32ft 0kts
12-May-18 10:57 37.618046 -122.384084 281 32ft 0kts
12-May-18 10:58 37.618046 -122.384083 281 32ft 0kts
12-May-18 10:59 37.617816 -122.383668 1 32ft 0kts
12-May-18 11:00 37.618084 -122.383507 29 32ft 0kts
12-May-18 11:01 37.618084 -122.383507 29 32ft 0kts
12-May-18 11:02 37.619236 -122.382716 29 32ft 0kts
12-May-18 11:03 37.619251 -122.382706 29 32ft 2kts
12-May-18 11:04 37.617340 -122.379426 179 31ft 20kts
12-May-18 11:05 37.612138 -122.382610 207 32ft 22kts
12-May-18 11:06 37.608514 -122.383977 117 32ft 6kts
12-May-18 11:07 37.608945 -122.382236 26 30ft 16kts
12-May-18 11:08 37.643725 -122.361992 2 1930ft 191kts
12-May-18 11:09 37.704112 -122.370881 313 4837ft 258kts
12-May-18 11:10 37.690151 -122.449776 207 8652ft 295kts
12-May-18 11:11 37.603305 -122.462864 186 11211ft 354kts
12-May-18 11:12 37.500372 -122.467811 163 13847ft 385kts
12-May-18 11:13 37.424965 -122.374515 125 16422ft 396kts
12-May-18 11:14 37.354478 -122.264430 125 18706ft 415kts
12-May-18 11:15 37.280493 -122.149965 125 20731ft 433kts
12-May-18 11:16 37.202989 -122.030543 125 22638ft 449kts
12-May-18 11:17 37.123218 -121.908077 125 24401ft 462kts
12-May-18 11:18 37.040606 -121.781727 126 25799ft 481kts
12-May-18 11:19 36.954281 -121.650232 127 27099ft 499kts
12-May-18 11:20 36.865552 -121.515590 128 28412ft 511kts
12-May-18 11:21 36.774134 -121.377433 128 29603ft 522kts
12-May-18 11:22 36.681848 -121.238540 129 30645ft 532kts
12-May-18 11:23 36.587056 -121.096456 131 31789ft 536kts
12-May-18 11:24 36.491756 -120.954218 133 33013ft 537kts
12-May-18 11:25 36.396744 -120.811896 132 34190ft 537kts
12-May-18 11:26 36.301938 -120.670383 133 35411ft 534kts
12-May-18 11:27 36.208721 -120.531849 133 36494ft 532kts
12-May-18 11:28 36.114109 -120.391833 133 37053ft 533kts
12-May-18 11:29 36.020180 -120.253375 133 37005ft 532kts
12-May-18 11:30 35.924842 -120.113431 134 37026ft 533kts
12-May-18 11:31 35.829865 -119.974851 134 37021ft 533kts
12-May-18 11:32 35.733018 -119.837406 134 37055ft 533kts
12-May-18 11:33 35.636333 -119.700453 134 37053ft 533kts
12-May-18 11:34 35.541576 -119.566751 134 37040ft 533kts
12-May-18 11:35 35.444435 -119.430228 134 37032ft 533kts
12-May-18 11:36 35.348280 -119.295618 135 37020ft 532kts
12-May-18 11:37 35.251597 -119.160793 133 37054ft 527kts
12-May-18 11:38 35.155544 -119.027390 134 37018ft 525kts
12-May-18 11:39 35.059633 -118.894686 136 37101ft 518kts
12-May-18 11:40 34.965829 -118.765338 137 37155ft 501kts
12-May-18 11:41 34.875630 -118.641458 137 37104ft 484kts
12-May-18 11:42 34.786132 -118.519099 137 37073ft 485kts
12-May-18 11:43 34.696678 -118.397139 137 37065ft 486kts
12-May-18 11:44 34.608723 -118.277620 137 37065ft 485kts
12-May-18 11:45 34.518788 -118.155841 138 37066ft 484kts
12-May-18 11:46 34.431156 -118.032210 126 37075ft 493kts
12-May-18 11:47 34.386066 -117.873749 109 37158ft 504kts
12-May-18 11:48 34.347302 -117.711487 109 37122ft 504kts
12-May-18 11:49 34.308208 -117.549462 109 37094ft 503kts
12-May-18 11:50 34.269128 -117.388524 109 37111ft 503kts
12-May-18 11:51 34.229894 -117.227952 110 37124ft 502kts
12-May-18 11:52 34.190362 -117.067172 110 37122ft 502kts
12-May-18 11:53 34.150738 -116.906999 111 37157ft 499kts
12-May-18 11:54 34.111100 -116.747754 111 37084ft 495kts
12-May-18 11:55 34.071587 -116.590012 111 36988ft 492kts
12-May-18 11:56 34.031808 -116.432161 111 36984ft 492kts
12-May-18 11:57 33.992037 -116.275269 112 37002ft 492kts
12-May-18 11:58 33.951838 -116.117626 112 36990ft 492kts
12-May-18 11:59 33.911616 -115.960824 112 36978ft 492kts
12-May-18 12:00 33.871080 -115.803728 112 36991ft 493kts
12-May-18 12:01 33.830193 -115.646188 112 37000ft 494kts
12-May-18 12:02 33.789227 -115.489252 112 36999ft 494kts
12-May-18 12:03 33.747962 -115.332096 112 36986ft 494kts
12-May-18 12:04 33.706586 -115.175407 112 36969ft 492kts
12-May-18 12:05 33.665415 -115.020335 113 36186ft 486kts
12-May-18 12:06 33.624436 -114.866926 113 33953ft 484kts
12-May-18 12:07 33.586406 -114.711351 107 31411ft 491kts
12-May-18 12:08 33.555564 -114.552585 107 28778ft 491kts
12-May-18 12:09 33.524515 -114.393936 107 26148ft 485kts
12-May-18 12:10 33.494335 -114.240741 107 23693ft 470kts
12-May-18 12:11 33.465665 -114.095865 107 22848ft 418kts
12-May-18 12:12 33.438567 -113.961185 108 22548ft 419kts
12-May-18 12:13 33.411381 -113.825984 107 22228ft 417kts
12-May-18 12:14 33.384216 -113.691456 107 21897ft 415kts
12-May-18 12:15 33.357022 -113.557594 107 21550ft 413kts
12-May-18 12:16 33.330896 -113.423842 105 21183ft 412kts
12-May-18 12:17 33.307987 -113.291207 106 20569ft 405kts
12-May-18 12:18 33.287335 -113.159936 103 19531ft 400kts
12-May-18 12:19 33.275324 -113.032388 91 18639ft 378kts
12-May-18 12:20 33.278438 -112.908004 92 17613ft 372kts
12-May-18 12:21 33.283660 -112.788977 88 16656ft 346kts
12-May-18 12:22 33.294264 -112.676115 88 15342ft 339kts
12-May-18 12:23 33.304535 -112.565731 88 14048ft 332kts
12-May-18 12:24 33.314562 -112.457067 88 12772ft 325kts
12-May-18 12:25 33.324286 -112.350711 88 11492ft 319kts
12-May-18 12:26 33.333688 -112.247765 88 10106ft 307kts
12-May-18 12:27 33.342602 -112.149669 89 9255ft 279kts
12-May-18 12:28 33.347397 -112.063084 96 8633ft 253kts
12-May-18 12:29 33.346231 -111.979383 96 7571ft 251kts
12-May-18 12:30 33.345322 -111.896411 96 7068ft 242kts
12-May-18 12:31 33.345538 -111.820465 95 7061ft 222kts
12-May-18 12:32 33.345950 -111.748986 95 5511ft 215kts
12-May-18 12:33 33.384596 -111.703840 358 4077ft 230kts
12-May-18 12:34 33.421652 -111.752764 289 4056ft 204kts
12-May-18 12:35 33.428881 -111.816949 263 4028ft 192kts
12-May-18 12:36 33.428897 -111.877666 263 3129ft 170kts
12-May-18 12:37 33.428853 -111.927207 263 2336ft 134kts
12-May-18 12:38 33.428793 -111.972138 265 1626ft 136kts
12-May-18 12:39 33.428858 -112.013776 270 1122ft 58kts
12-May-18 12:40 33.429727 -112.016483 24 1122ft 9kts
12-May-18 12:41 33.432445 -112.015164 3 1124ft 9kts
12-May-18 12:42 33.433920 -112.014747 96 1125ft 6kts
12-May-18 12:43 33.433889 -112.014318 94 1125ft 0kts

Navigation Log

Ident Type
1. KSFO Airport
2. BOILE Fix
3. BLH Navaid
4. KPHX Airport